Turks and Caicos Islands Weather

[source: ADDS]
METAR
MBPV 271030Z 2712/2812 10020KT 9999 SCT020 PROB30 2712/2715 8000 SHRA SCT016 MBGT 271030Z 2712/2812 10020KT 9999 SCT020 PROB30 2712/2715 8000 SHRA SCT016 TAF
MBPV 271030Z 2712/2812 10020KT 9999 SCT020 PROB30 2712/2715 8000 SHRA SCT016 =
MBGT 271030Z 2712/2812 10020KT 9999 SCT020 PROB30 2712/2715 8000 SHRA SCT016 =
SR / SS: 10:45 / 23:02 UTC (MBPV 2015-03-27)
E-mail Print PDF
Weather